createdAt,value
2023-01-20T00:01:05.302Z,94460.47
2023-01-20T00:03:31.891Z,94462.25
2023-01-20T00:05:59.120Z,94468.38
2023-01-20T00:08:25.687Z,94462.66
2023-01-20T00:10:52.205Z,94462.25
2023-01-20T00:13:18.715Z,94471.00
2023-01-20T00:15:45.313Z,94461.41
2023-01-20T00:18:12.017Z,94467.69
2023-01-20T00:20:38.542Z,94463.59
2023-01-20T00:23:05.255Z,94466.75
2023-01-20T00:25:32.045Z,94473.44
2023-01-20T00:27:58.585Z,94473.16
2023-01-20T00:30:25.263Z,94472.47
2023-01-20T00:32:52.301Z,94473.72
2023-01-20T00:35:18.844Z,94478.75
2023-01-20T00:37:45.466Z,94482.16
2023-01-20T00:40:12.175Z,94481.91
2023-01-20T00:42:38.694Z,94479.03
2023-01-20T00:45:05.663Z,94478.19
2023-01-20T00:47:32.235Z,94479.31
2023-01-20T00:49:58.743Z,94479.84
2023-01-20T00:52:25.295Z,94484.34
2023-01-20T00:54:51.833Z,94488.16
2023-01-20T00:57:18.373Z,94486.00
2023-01-20T00:59:44.874Z,94485.44
2023-01-20T01:02:11.495Z,94486.53
2023-01-20T01:04:38.069Z,94488.84
2023-01-20T01:07:04.690Z,94490.34
2023-01-20T01:09:32.333Z,94490.34
2023-01-20T01:11:58.833Z,94493.63
2023-01-20T01:14:25.441Z,94498.00
2023-01-20T01:16:51.934Z,94497.47
2023-01-20T01:19:19.230Z,94502.34
2023-01-20T01:21:45.798Z,94497.31
2023-01-20T01:24:12.346Z,94504.84
2023-01-20T01:26:38.930Z,94509.44
2023-01-20T01:29:05.516Z,94508.22
2023-01-20T01:31:32.061Z,94511.22
2023-01-20T01:33:58.572Z,94505.09
2023-01-20T01:36:25.109Z,94514.91
2023-01-20T01:38:57.470Z,94513.28
2023-01-20T01:41:26.294Z,94518.84
2023-01-20T01:44:11.055Z,94520.78
2023-01-20T01:46:38.445Z,94519.28
2023-01-20T01:49:13.980Z,94515.47
2023-01-20T01:51:55.147Z,94516.81
2023-01-20T01:54:24.782Z,94511.34
2023-01-20T01:56:52.451Z,94516.00
2023-01-20T01:59:20.109Z,94514.50
2023-01-20T02:01:52.804Z,94517.66
2023-01-20T02:04:24.970Z,94518.31
2023-01-20T02:07:08.007Z,94517.34
2023-01-20T02:09:35.875Z,94518.59
2023-01-20T02:12:06.400Z,94521.44
2023-01-20T02:14:55.599Z,94514.34
2023-01-20T02:17:22.074Z,94515.59
2023-01-20T02:20:25.299Z,94519.81
2023-01-20T02:23:44.552Z,94524.97
2023-01-20T02:26:41.778Z,94526.63
2023-01-20T02:29:26.913Z,94526.63
2023-01-20T02:32:12.690Z,94522.13
2023-01-20T02:34:58.701Z,94521.88
2023-01-20T02:37:28.430Z,94528.13
2023-01-20T02:40:04.953Z,94528.25
2023-01-20T02:42:41.017Z,94535.25
2023-01-20T02:45:36.512Z,94532.09
2023-01-20T02:48:10.158Z,94533.19
2023-01-20T02:50:48.534Z,94535.50
2023-01-20T02:53:17.666Z,94534.69
2023-01-20T02:55:49.458Z,94535.50
2023-01-20T02:58:18.853Z,94534.56
2023-01-20T03:01:22.552Z,94543.16
2023-01-20T03:03:52.402Z,94545.31
2023-01-20T03:06:24.142Z,94553.38
2023-01-20T03:08:53.183Z,94549.97
2023-01-20T03:11:20.413Z,94554.47
2023-01-20T03:14:11.031Z,94553.78
2023-01-20T03:16:38.757Z,94558.19
2023-01-20T03:19:05.378Z,94554.47
2023-01-20T03:21:33.612Z,94556.91
2023-01-20T03:24:03.174Z,94569.16
2023-01-20T03:26:30.826Z,94558.16
2023-01-20T03:28:57.981Z,94567.06
2023-01-20T03:31:36.424Z,94564.47
2023-01-20T03:34:10.879Z,94575.50
2023-01-20T03:36:38.142Z,94570.19
2023-01-20T03:39:05.407Z,94572.91
2023-01-20T03:41:47.104Z,94578.56
2023-01-20T03:44:28.902Z,94586.00
2023-01-20T03:46:55.414Z,94583.94
2023-01-20T03:49:42.907Z,94586.09
2023-01-20T03:52:22.517Z,94592.31
2023-01-20T03:54:57.193Z,94594.31
2023-01-20T03:57:29.629Z,94593.94
2023-01-20T03:59:56.994Z,94602.66
2023-01-20T04:02:26.080Z,94601.81
2023-01-20T04:04:53.940Z,94602.66
2023-01-20T04:07:26.450Z,94604.16
2023-01-20T04:09:58.204Z,94606.63
2023-01-20T04:12:24.829Z,94614.91
2023-01-20T04:14:51.395Z,94610.50
2023-01-20T04:17:18.059Z,94613.94
2023-01-20T04:19:44.747Z,94616.69
2023-01-20T04:22:35.756Z,94617.75
2023-01-20T04:25:15.281Z,94615.75
2023-01-20T04:27:42.019Z,94623.03
2023-01-20T04:30:09.601Z,94621.56
2023-01-20T04:32:36.153Z,94630.94
2023-01-20T04:35:02.745Z,94633.06
2023-01-20T04:37:29.269Z,94630.69
2023-01-20T04:39:55.801Z,94632.63
2023-01-20T04:42:22.371Z,94635.97
2023-01-20T04:44:48.872Z,94638.16
2023-01-20T04:47:15.406Z,94635.34
2023-01-20T04:49:41.913Z,94645.94
2023-01-20T04:52:08.429Z,94653.28
2023-01-20T04:54:34.945Z,94647.44
2023-01-20T04:57:01.470Z,94656.03
2023-01-20T04:59:27.967Z,94657.06
2023-01-20T05:01:54.613Z,94652.75
2023-01-20T05:04:21.267Z,94653.03
2023-01-20T05:06:47.807Z,94658.13
2023-01-20T05:09:16.235Z,94660.56
2023-01-20T05:11:43.893Z,94664.53
2023-01-20T05:14:11.701Z,94670.25
2023-01-20T05:16:38.258Z,94676.13
2023-01-20T05:19:04.781Z,94676.13
2023-01-20T05:21:31.454Z,94669.72
2023-01-20T05:23:58.009Z,94678.47
2023-01-20T05:26:25.753Z,94682.09
2023-01-20T05:28:53.128Z,94692.78
2023-01-20T05:31:19.823Z,94697.28
2023-01-20T05:33:46.446Z,94696.97
2023-01-20T05:36:12.980Z,94692.72
2023-01-20T05:38:39.586Z,94692.56
2023-01-20T05:41:08.385Z,94696.88
2023-01-20T05:43:35.793Z,94697.19
2023-01-20T05:46:02.934Z,94704.81
2023-01-20T05:48:29.487Z,94709.91
2023-01-20T05:50:56.043Z,94702.25
2023-01-20T05:53:22.875Z,94709.09
2023-01-20T05:55:49.434Z,94715.00
2023-01-20T05:58:15.955Z,94718.50
2023-01-20T06:00:42.515Z,94718.47
2023-01-20T06:03:09.065Z,94725.94
2023-01-20T06:05:35.633Z,94723.38
2023-01-20T06:08:02.153Z,94725.88
2023-01-20T06:10:28.678Z,94729.09
2023-01-20T06:12:55.858Z,94728.97
2023-01-20T06:15:23.950Z,94724.13
2023-01-20T06:17:51.189Z,94727.31
2023-01-20T06:20:18.722Z,94730.72
2023-01-20T06:22:45.255Z,94735.28
2023-01-20T06:25:11.813Z,94732.88
2023-01-20T06:27:38.398Z,94730.22
2023-01-20T06:30:07.129Z,94736.13
2023-01-20T06:32:33.644Z,94742.41
2023-01-20T06:35:00.178Z,94752.66
2023-01-20T06:37:26.730Z,94751.00
2023-01-20T06:39:53.247Z,94751.44
2023-01-20T06:42:19.771Z,94763.66
2023-01-20T06:44:46.361Z,94767.19
2023-01-20T06:47:12.924Z,94761.06
2023-01-20T06:49:42.111Z,94763.13
2023-01-20T06:52:09.637Z,94768.59
2023-01-20T06:54:36.154Z,94771.00
2023-01-20T06:57:02.719Z,94772.13
2023-01-20T06:59:29.281Z,94773.19
2023-01-20T07:01:55.870Z,94778.56
2023-01-20T07:04:22.629Z,94785.25
2023-01-20T07:06:49.377Z,94783.03
2023-01-20T07:09:15.950Z,94790.22
2023-01-20T07:11:42.530Z,94794.09
2023-01-20T07:14:09.963Z,94795.25
2023-01-20T07:16:36.984Z,94797.47
2023-01-20T07:19:03.684Z,94801.84
2023-01-20T07:21:30.520Z,94804.75
2023-01-20T07:24:00.254Z,94808.16
2023-01-20T07:26:26.874Z,94812.59
2023-01-20T07:28:53.592Z,94812.50
2023-01-20T07:31:22.824Z,94813.91
2023-01-20T07:33:50.026Z,94824.47
2023-01-20T07:36:17.397Z,94823.53
2023-01-20T07:38:48.386Z,94825.28
2023-01-20T07:41:19.541Z,94832.94
2023-01-20T07:43:47.908Z,94841.41
2023-01-20T07:46:15.162Z,94844.47
2023-01-20T07:48:42.027Z,94849.56
2023-01-20T07:51:11.137Z,94843.91
2023-01-20T07:53:46.442Z,94852.72
2023-01-20T07:56:15.880Z,94849.25
2023-01-20T07:58:45.105Z,94857.13
2023-01-20T08:01:14.376Z,94869.34
2023-01-20T08:03:41.226Z,94869.28
2023-01-20T08:06:10.332Z,94865.03
2023-01-20T08:08:37.297Z,94863.16
2023-01-20T08:11:05.949Z,94869.97
2023-01-20T08:13:33.029Z,94861.47
2023-01-20T08:16:01.651Z,94864.91
2023-01-20T08:18:28.213Z,94872.56
2023-01-20T08:20:54.766Z,94873.34
2023-01-20T08:23:21.351Z,94874.94
2023-01-20T08:25:47.896Z,94871.91
2023-01-20T08:28:14.443Z,94876.34
2023-01-20T08:30:41.063Z,94881.81
2023-01-20T08:33:07.673Z,94878.78
2023-01-20T08:35:36.470Z,94880.31
2023-01-20T08:38:03.471Z,94884.31
2023-01-20T08:40:30.002Z,94894.00
2023-01-20T08:42:56.540Z,94896.84
2023-01-20T08:45:23.804Z,94892.47
2023-01-20T08:47:50.469Z,94898.16
2023-01-20T08:50:17.767Z,94906.38
2023-01-20T08:52:44.699Z,94904.09
2023-01-20T08:55:11.796Z,94912.44
2023-01-20T08:57:38.373Z,94914.59
2023-01-20T09:00:06.073Z,94910.09
2023-01-20T09:02:32.683Z,94920.16
2023-01-20T09:04:59.578Z,94922.13
2023-01-20T09:07:26.961Z,94922.63
2023-01-20T09:09:53.494Z,94917.63
2023-01-20T09:12:20.669Z,94924.72
2023-01-20T09:14:47.272Z,94931.56
2023-01-20T09:17:14.686Z,94937.19
2023-01-20T09:19:41.221Z,94940.41
2023-01-20T09:22:08.032Z,94945.59
2023-01-20T09:24:34.551Z,94948.41
2023-01-20T09:27:01.106Z,94943.81
2023-01-20T09:29:27.721Z,94940.88
2023-01-20T09:31:58.971Z,94946.78
2023-01-20T09:34:29.242Z,94954.59
2023-01-20T09:37:21.268Z,94951.03
2023-01-20T09:40:07.272Z,94955.28
2023-01-20T09:43:17.798Z,94963.06
2023-01-20T09:46:01.200Z,94968.97
2023-01-20T09:48:55.678Z,94968.69
2023-01-20T09:51:51.077Z,94969.56
2023-01-20T09:54:25.430Z,94967.25
2023-01-20T09:56:56.346Z,94968.78
2023-01-20T09:59:41.093Z,94972.25
2023-01-20T10:02:17.480Z,94973.94
2023-01-20T10:04:51.382Z,94975.78
2023-01-20T10:07:29.803Z,94976.22
2023-01-20T10:10:17.964Z,94976.38
2023-01-20T10:12:52.484Z,94975.03
2023-01-20T10:15:46.231Z,94980.53
2023-01-20T10:18:23.732Z,94977.81
2023-01-20T10:21:08.257Z,94971.53
2023-01-20T10:23:46.449Z,94976.41
2023-01-20T10:26:32.413Z,94967.63
2023-01-20T10:29:03.231Z,94979.94
2023-01-20T10:31:40.656Z,94975.97
2023-01-20T10:34:12.640Z,94978.25
2023-01-20T10:36:44.038Z,94981.16
2023-01-20T10:39:22.082Z,94977.66
2023-01-20T10:42:01.800Z,94974.19
2023-01-20T10:44:28.542Z,94973.09
2023-01-20T10:47:13.731Z,94981.44
2023-01-20T10:49:56.349Z,94981.22
2023-01-20T10:52:57.171Z,94986.41
2023-01-20T10:55:32.705Z,94980.72
2023-01-20T10:58:09.133Z,94977.09
2023-01-20T11:00:35.779Z,94980.78
2023-01-20T11:03:06.012Z,94976.09
2023-01-20T11:05:41.088Z,94978.72
2023-01-20T11:08:20.305Z,94981.59
2023-01-20T11:10:53.887Z,94983.59
2023-01-20T11:13:20.488Z,94982.56
2023-01-20T11:15:50.883Z,94982.22
2023-01-20T11:18:17.446Z,94988.25
2023-01-20T11:20:50.460Z,94982.91
2023-01-20T11:23:38.229Z,94982.53
2023-01-20T11:26:20.537Z,94980.22
2023-01-20T11:29:11.712Z,94980.59
2023-01-20T11:31:47.258Z,94987.94
2023-01-20T11:34:30.851Z,94980.03
2023-01-20T11:37:06.455Z,94986.88
2023-01-20T11:39:43.501Z,94983.75
2023-01-20T11:42:20.032Z,94981.47
2023-01-20T11:44:55.238Z,94982.44
2023-01-20T11:47:24.618Z,94984.78
2023-01-20T11:50:09.278Z,94980.81
2023-01-20T11:52:43.826Z,94978.97
2023-01-20T11:55:15.384Z,94980.19
2023-01-20T11:57:50.509Z,94981.81
2023-01-20T12:00:19.956Z,94980.25
2023-01-20T12:03:02.531Z,94982.00
2023-01-20T12:05:32.796Z,94984.00
2023-01-20T12:08:00.603Z,94973.19
2023-01-20T12:10:34.789Z,94980.53
2023-01-20T12:13:20.525Z,94977.03
2023-01-20T12:15:54.582Z,94985.84
2023-01-20T12:18:33.323Z,94980.22
2023-01-20T12:21:18.284Z,94988.25
2023-01-20T12:23:50.875Z,94983.78
2023-01-20T12:26:20.117Z,94986.00
2023-01-20T12:28:51.475Z,94992.41
2023-01-20T12:31:20.277Z,94995.16
2023-01-20T12:34:14.638Z,94996.53
2023-01-20T12:36:47.070Z,94998.50
2023-01-20T12:39:52.448Z,94993.94
2023-01-20T12:42:38.852Z,95001.41
2023-01-20T12:45:21.153Z,95002.50
2023-01-20T12:48:11.109Z,95006.16
2023-01-20T12:50:51.096Z,95003.81
2023-01-20T12:53:23.760Z,95005.91
2023-01-20T12:56:28.241Z,95004.78
2023-01-20T12:59:15.143Z,95011.78
2023-01-20T13:01:47.197Z,95014.34
2023-01-20T13:04:35.604Z,95013.59
2023-01-20T13:07:22.647Z,95013.09
2023-01-20T13:09:49.101Z,95015.41
2023-01-20T13:12:35.835Z,95013.69
2023-01-20T13:15:22.568Z,95000.78
2023-01-20T13:18:13.897Z,95008.19
2023-01-20T13:20:45.420Z,95012.25
2023-01-20T13:23:18.522Z,95018.25
2023-01-20T13:25:46.747Z,95026.19
2023-01-20T13:28:22.457Z,95023.72
2023-01-20T13:30:53.910Z,95026.03
2023-01-20T13:33:34.267Z,95034.72
2023-01-20T13:36:21.495Z,95031.25
2023-01-20T13:38:50.966Z,95038.78
2023-01-20T13:41:49.935Z,95037.59
2023-01-20T13:44:35.818Z,95042.09
2023-01-20T13:47:03.850Z,95037.34
2023-01-20T13:49:51.223Z,95043.72
2023-01-20T13:53:15.149Z,95045.81
2023-01-20T13:55:41.681Z,95050.47
2023-01-20T13:58:19.600Z,95058.66
2023-01-20T14:00:49.636Z,95055.69
2023-01-20T14:03:19.130Z,95054.03
2023-01-20T14:05:54.111Z,95061.00
2023-01-20T14:08:23.021Z,95056.34
2023-01-20T14:10:49.678Z,95051.06
2023-01-20T14:13:22.041Z,95056.91
2023-01-20T14:15:54.257Z,95060.91
2023-01-20T14:18:23.260Z,95065.66
2023-01-20T14:21:19.118Z,95064.25
2023-01-20T14:23:48.744Z,95065.63
2023-01-20T14:26:21.162Z,95073.53
2023-01-20T14:28:53.968Z,95076.38
2023-01-20T14:31:33.925Z,95079.00
2023-01-20T14:34:19.262Z,95077.56
2023-01-20T14:36:46.509Z,95079.63
2023-01-20T14:39:23.776Z,95082.97
2023-01-20T14:41:51.293Z,95083.06
2023-01-20T14:44:23.464Z,95081.84
2023-01-20T14:46:52.822Z,95090.00
2023-01-20T14:49:22.100Z,95094.81
2023-01-20T14:51:50.136Z,95092.63
2023-01-20T14:54:41.459Z,95095.50
2023-01-20T14:57:31.051Z,95097.66
2023-01-20T15:00:19.832Z,95107.28
2023-01-20T15:03:14.099Z,95112.25
2023-01-20T15:06:05.968Z,95114.16
2023-01-20T15:08:32.455Z,95113.09
2023-01-20T15:11:14.805Z,95113.88
2023-01-20T15:13:43.667Z,95116.94
2023-01-20T15:16:17.517Z,95114.88
2023-01-20T15:19:04.922Z,95118.00
2023-01-20T15:21:31.453Z,95118.84
2023-01-20T15:24:12.218Z,95126.69
2023-01-20T15:26:38.930Z,95130.03
2023-01-20T15:29:25.149Z,95133.44
2023-01-20T15:31:53.093Z,95131.19
2023-01-20T15:34:21.157Z,95130.50
2023-01-20T15:36:49.180Z,95126.44
2023-01-20T15:39:22.553Z,95136.91
2023-01-20T15:41:53.972Z,95137.72
2023-01-20T15:44:25.835Z,95136.53
2023-01-20T15:46:57.895Z,95142.19
2023-01-20T15:49:25.873Z,95138.09
2023-01-20T15:51:53.043Z,95141.41
2023-01-20T15:54:19.804Z,95142.00
2023-01-20T15:56:46.776Z,95147.50
2023-01-20T15:59:19.788Z,95151.31
2023-01-20T16:01:48.234Z,95150.00
2023-01-20T16:04:15.548Z,95157.91
2023-01-20T16:06:42.643Z,95158.81
2023-01-20T16:09:16.936Z,95156.59
2023-01-20T16:11:43.668Z,95165.06
2023-01-20T16:14:10.331Z,95159.53
2023-01-20T16:16:37.193Z,95164.59
2023-01-20T16:19:08.398Z,95166.94
2023-01-20T16:21:36.809Z,95172.88
2023-01-20T16:24:04.014Z,95169.69
2023-01-20T16:26:35.481Z,95165.56
2023-01-20T16:29:02.340Z,95170.75
2023-01-20T16:31:29.135Z,95171.06
2023-01-20T16:33:56.479Z,95171.44
2023-01-20T16:36:25.058Z,95169.06
2023-01-20T16:38:52.205Z,95174.13
2023-01-20T16:41:27.630Z,95173.19
2023-01-20T16:43:55.683Z,95173.53
2023-01-20T16:46:24.646Z,95177.31
2023-01-20T16:48:51.816Z,95184.41
2023-01-20T16:51:21.585Z,95175.06
2023-01-20T16:53:49.358Z,95191.94
2023-01-20T16:56:19.732Z,95187.09
2023-01-20T16:58:51.755Z,95184.28
2023-01-20T17:01:24.673Z,95190.28
2023-01-20T17:03:53.994Z,95194.28
2023-01-20T17:06:23.922Z,95197.13
2023-01-20T17:08:56.061Z,95198.91
2023-01-20T17:11:26.875Z,95205.81
2023-01-20T17:13:56.111Z,95204.69
2023-01-20T17:16:23.859Z,95202.31
2023-01-20T17:18:51.696Z,95211.25
2023-01-20T17:21:20.542Z,95211.72
2023-01-20T17:23:55.825Z,95211.84
2023-01-20T17:26:23.560Z,95214.78
2023-01-20T17:28:55.566Z,95213.72
2023-01-20T17:31:23.273Z,95217.63
2023-01-20T17:33:55.687Z,95213.25
2023-01-20T17:36:25.950Z,95228.47
2023-01-20T17:38:55.533Z,95226.47
2023-01-20T17:41:22.858Z,95222.84
2023-01-20T17:43:53.143Z,95224.59
2023-01-20T17:46:25.907Z,95226.97
2023-01-20T17:48:52.419Z,95233.19
2023-01-20T17:51:21.942Z,95235.19
2023-01-20T17:53:48.956Z,95235.69
2023-01-20T17:56:17.159Z,95239.34
2023-01-20T17:58:46.270Z,95240.97
2023-01-20T18:01:21.857Z,95245.34
2023-01-20T18:03:50.217Z,95248.63
2023-01-20T18:06:19.237Z,95255.72
2023-01-20T18:08:54.511Z,95250.03
2023-01-20T18:11:23.522Z,95248.88
2023-01-20T18:13:52.136Z,95257.81
2023-01-20T18:16:20.178Z,95256.78
2023-01-20T18:18:47.906Z,95255.00
2023-01-20T18:21:19.833Z,95246.28
2023-01-20T18:23:47.959Z,95262.66
2023-01-20T18:26:16.716Z,95259.72
2023-01-20T18:28:43.603Z,95261.84
2023-01-20T18:31:16.433Z,95261.84
2023-01-20T18:33:51.157Z,95265.81
2023-01-20T18:36:24.538Z,95263.47
2023-01-20T18:38:56.135Z,95267.59
2023-01-20T18:41:23.575Z,95267.28
2023-01-20T18:43:50.214Z,95273.53
2023-01-20T18:46:17.509Z,95269.72
2023-01-20T18:48:45.931Z,95269.84
2023-01-20T18:51:17.527Z,95271.38
2023-01-20T18:53:45.917Z,95268.66
2023-01-20T18:56:14.876Z,95269.97
2023-01-20T18:58:45.687Z,95275.28
2023-01-20T19:01:14.403Z,95277.03
2023-01-20T19:03:41.132Z,95285.19
2023-01-20T19:06:10.797Z,95276.22
2023-01-20T19:08:38.811Z,95278.56
2023-01-20T19:11:12.791Z,95279.53
2023-01-20T19:13:40.816Z,95283.41
2023-01-20T19:16:10.356Z,95279.72
2023-01-20T19:18:37.310Z,95282.22
2023-01-20T19:21:08.204Z,95279.63
2023-01-20T19:23:35.128Z,95291.19
2023-01-20T19:26:03.840Z,95280.34
2023-01-20T19:28:31.971Z,95276.69
2023-01-20T19:31:13.964Z,95280.22
2023-01-20T19:33:40.794Z,95284.94
2023-01-20T19:36:10.891Z,95280.09
2023-01-20T19:38:37.912Z,95293.31
2023-01-20T19:41:27.631Z,95289.41
2023-01-20T19:43:57.090Z,95298.94
2023-01-20T19:46:26.697Z,95290.56
2023-01-20T19:48:55.960Z,95297.78
2023-01-20T19:51:23.269Z,95305.06
2023-01-20T19:53:55.493Z,95305.16
2023-01-20T19:56:22.054Z,95305.22
2023-01-20T19:58:48.904Z,95309.16
2023-01-20T20:01:20.984Z,95315.84
2023-01-20T20:03:48.687Z,95308.94
2023-01-20T20:06:33.051Z,95311.88
2023-01-20T20:09:10.119Z,95321.88
2023-01-20T20:11:36.999Z,95318.66
2023-01-20T20:14:06.174Z,95312.72
2023-01-20T20:16:35.420Z,95316.97
2023-01-20T20:19:02.613Z,95323.31
2023-01-20T20:21:29.212Z,95319.28
2023-01-20T20:23:57.995Z,95328.81
2023-01-20T20:26:27.648Z,95334.75
2023-01-20T20:28:54.317Z,95334.59
2023-01-20T20:31:22.387Z,95330.25
2023-01-20T20:33:49.041Z,95327.84
2023-01-20T20:36:15.594Z,95326.84
2023-01-20T20:38:42.171Z,95325.66
2023-01-20T20:41:09.504Z,95335.31
2023-01-20T20:43:37.354Z,95334.34
2023-01-20T20:46:06.546Z,95334.81
2023-01-20T20:48:36.718Z,95334.03
2023-01-20T20:51:07.381Z,95336.19
2023-01-20T20:53:34.172Z,95342.00
2023-01-20T20:56:04.037Z,95340.72
2023-01-20T20:58:31.714Z,95342.47
2023-01-20T21:01:02.538Z,95351.22
2023-01-20T21:03:29.965Z,95338.50
2023-01-20T21:05:56.554Z,95341.69
2023-01-20T21:08:25.153Z,95348.41
2023-01-20T21:10:52.142Z,95341.47
2023-01-20T21:13:18.930Z,95345.38
2023-01-20T21:15:54.810Z,95346.66
2023-01-20T21:18:21.394Z,95346.69
2023-01-20T21:20:57.263Z,95345.19
2023-01-20T21:23:24.444Z,95350.50
2023-01-20T21:25:51.166Z,95350.69
2023-01-20T21:28:18.161Z,95346.59
2023-01-20T21:30:44.798Z,95348.41
2023-01-20T21:33:17.569Z,95345.94
2023-01-20T21:35:45.400Z,95353.50
2023-01-20T21:38:12.685Z,95353.94
2023-01-20T21:40:39.780Z,95356.66
2023-01-20T21:43:25.499Z,95357.97
2023-01-20T21:45:56.170Z,95353.50
2023-01-20T21:48:42.028Z,95350.44
2023-01-20T21:51:29.163Z,95360.00
2023-01-20T21:53:55.692Z,95363.66
2023-01-20T21:56:22.225Z,95359.16
2023-01-20T21:58:48.744Z,95370.69
2023-01-20T22:01:15.384Z,95369.53
2023-01-20T22:03:41.933Z,95366.09
2023-01-20T22:06:09.306Z,95370.47
2023-01-20T22:08:35.820Z,95369.41
2023-01-20T22:11:02.390Z,95375.28
2023-01-20T22:13:29.251Z,95373.00
2023-01-20T22:15:55.758Z,95370.19
2023-01-20T22:18:22.276Z,95377.22
2023-01-20T22:20:48.815Z,95370.97
2023-01-20T22:23:15.333Z,95373.00
2023-01-20T22:25:42.022Z,95381.69
2023-01-20T22:28:08.851Z,95380.56
2023-01-20T22:30:35.373Z,95373.63
2023-01-20T22:33:01.924Z,95383.34
2023-01-20T22:35:29.991Z,95378.81
2023-01-20T22:37:56.497Z,95383.94
2023-01-20T22:40:22.998Z,95374.69
2023-01-20T22:42:49.690Z,95380.00
2023-01-20T22:45:16.435Z,95383.59
2023-01-20T22:47:43.248Z,95384.06
2023-01-20T22:50:10.644Z,95382.09
2023-01-20T22:52:37.236Z,95394.38
2023-01-20T22:55:04.348Z,95390.34
2023-01-20T22:57:30.919Z,95387.03
2023-01-20T22:59:57.437Z,95396.59
2023-01-20T23:02:24.021Z,95385.31
2023-01-20T23:04:52.331Z,95387.91
2023-01-20T23:07:18.995Z,95389.88
2023-01-20T23:09:46.443Z,95386.31
2023-01-20T23:12:13.032Z,95384.81
2023-01-20T23:14:58.108Z,95383.44
2023-01-20T23:17:31.637Z,95387.19
2023-01-20T23:19:58.203Z,95390.72
2023-01-20T23:22:24.757Z,95394.94
2023-01-20T23:24:51.310Z,95396.97
2023-01-20T23:27:17.885Z,95390.66
2023-01-20T23:29:44.498Z,95385.41
2023-01-20T23:32:11.016Z,95390.41
2023-01-20T23:34:37.671Z,95388.00
2023-01-20T23:37:04.213Z,95386.34
2023-01-20T23:39:30.747Z,95390.44
2023-01-20T23:41:57.815Z,95386.19
2023-01-20T23:44:24.312Z,95387.81
2023-01-20T23:46:50.813Z,95381.38
2023-01-20T23:49:17.371Z,95386.19
2023-01-20T23:51:43.862Z,95394.81
2023-01-20T23:54:13.229Z,95393.47
2023-01-20T23:56:39.814Z,95389.53
2023-01-20T23:59:06.390Z,95393.19
